sensor_id;sensor_type;location;lat;lon;timestamp;pressure;altitude;pressure_sealevel;temperature;humidity
40730;BME280;26418;50.070;8.436;2023-03-01T00:01:05;101157.38;;;0.10;63.54
40730;BME280;26418;50.070;8.436;2023-03-01T00:03:31;101163.13;;;0.13;63.40
40730;BME280;26418;50.070;8.436;2023-03-01T00:05:57;101156.38;;;0.11;63.27
40730;BME280;26418;50.070;8.436;2023-03-01T00:08:23;101166.41;;;0.15;63.28
40730;BME280;26418;50.070;8.436;2023-03-01T00:10:49;101162.13;;;0.14;63.14
40730;BME280;26418;50.070;8.436;2023-03-01T00:13:14;101153.25;;;0.01;63.43
40730;BME280;26418;50.070;8.436;2023-03-01T00:15:40;101165.59;;;0.08;63.66
40730;BME280;26418;50.070;8.436;2023-03-01T00:18:07;101166.38;;;0.09;63.19
40730;BME280;26418;50.070;8.436;2023-03-01T00:20:33;101156.31;;;-0.03;63.67
40730;BME280;26418;50.070;8.436;2023-03-01T00:22:59;101169.63;;;0.04;63.53
40730;BME280;26418;50.070;8.436;2023-03-01T00:25:24;101155.72;;;-0.05;64.25
40730;BME280;26418;50.070;8.436;2023-03-01T00:27:49;101166.94;;;-0.03;64.18
40730;BME280;26418;50.070;8.436;2023-03-01T00:30:15;101168.59;;;-0.02;64.29
40730;BME280;26418;50.070;8.436;2023-03-01T00:32:43;101156.94;;;-0.01;64.16
40730;BME280;26418;50.070;8.436;2023-03-01T00:35:08;101147.13;;;0.00;63.96
40730;BME280;26418;50.070;8.436;2023-03-01T00:37:34;101160.22;;;0.02;64.15
40730;BME280;26418;50.070;8.436;2023-03-01T00:39:59;101148.56;;;0.03;64.41
40730;BME280;26418;50.070;8.436;2023-03-01T00:42:25;101143.25;;;0.03;64.11
40730;BME280;26418;50.070;8.436;2023-03-01T00:44:50;101149.63;;;0.08;64.08
40730;BME280;26418;50.070;8.436;2023-03-01T00:47:15;101147.56;;;0.10;63.98
40730;BME280;26418;50.070;8.436;2023-03-01T00:49:41;101142.03;;;0.05;64.03
40730;BME280;26418;50.070;8.436;2023-03-01T00:52:06;101117.84;;;-0.07;64.21
40730;BME280;26418;50.070;8.436;2023-03-01T00:54:31;101128.91;;;-0.03;64.77
40730;BME280;26418;50.070;8.436;2023-03-01T00:56:57;101126.25;;;-0.03;64.61
40730;BME280;26418;50.070;8.436;2023-03-01T00:59:22;101124.41;;;-0.03;64.90
40730;BME280;26418;50.070;8.436;2023-03-01T01:01:47;101127.06;;;-0.03;64.76
40730;BME280;26418;50.070;8.436;2023-03-01T01:04:14;101122.56;;;-0.02;64.56
40730;BME280;26418;50.070;8.436;2023-03-01T01:06:40;101121.53;;;-0.08;64.84
40730;BME280;26418;50.070;8.436;2023-03-01T01:09:08;101123.16;;;-0.07;64.87
40730;BME280;26418;50.070;8.436;2023-03-01T01:11:34;101124.41;;;-0.03;64.90
40730;BME280;26418;50.070;8.436;2023-03-01T01:14:01;101114.19;;;0.01;64.60
40730;BME280;26418;50.070;8.436;2023-03-01T01:16:28;101118.91;;;0.06;64.52
40730;BME280;26418;50.070;8.436;2023-03-01T01:18:53;101103.78;;;0.06;64.05
40730;BME280;26418;50.070;8.436;2023-03-01T01:21:21;101098.03;;;0.03;64.57
40730;BME280;26418;50.070;8.436;2023-03-01T01:23:48;101103.75;;;-0.01;64.65
40730;BME280;26418;50.070;8.436;2023-03-01T01:26:17;101092.91;;;0.01;64.42
40730;BME280;26418;50.070;8.436;2023-03-01T01:28:43;101101.09;;;-0.01;64.73
40730;BME280;26418;50.070;8.436;2023-03-01T01:31:09;101085.34;;;-0.02;64.65
40730;BME280;26418;50.070;8.436;2023-03-01T01:33:35;101075.72;;;-0.03;64.78
40730;BME280;26418;50.070;8.436;2023-03-01T01:36:00;101062.81;;;-0.13;65.04
40730;BME280;26418;50.070;8.436;2023-03-01T01:38:26;101057.31;;;-0.05;64.97
40730;BME280;26418;50.070;8.436;2023-03-01T01:40:51;101060.56;;;-0.09;65.10
40730;BME280;26418;50.070;8.436;2023-03-01T01:43:29;101051.94;;;-0.18;65.05
40730;BME280;26418;50.070;8.436;2023-03-01T01:45:57;101060.38;;;-0.08;64.88
40730;BME280;26418;50.070;8.436;2023-03-01T01:48:29;101056.25;;;-0.17;64.85
40730;BME280;26418;50.070;8.436;2023-03-01T01:51:06;101058.34;;;-0.06;64.82
40730;BME280;26418;50.070;8.436;2023-03-01T01:53:32;101066.50;;;-0.01;64.95
40730;BME280;26418;50.070;8.436;2023-03-01T01:56:00;101061.59;;;-0.10;64.66
40730;BME280;26418;50.070;8.436;2023-03-01T01:58:28;101067.09;;;-0.12;65.04
40730;BME280;26418;50.070;8.436;2023-03-01T02:00:54;101083.31;;;0.00;65.17
40730;BME280;26418;50.070;8.436;2023-03-01T02:03:27;101077.56;;;0.03;64.79
40730;BME280;26418;50.070;8.436;2023-03-01T02:06:04;101082.28;;;0.08;64.89
40730;BME280;26418;50.070;8.436;2023-03-01T02:08:35;101067.94;;;0.02;64.99
40730;BME280;26418;50.070;8.436;2023-03-01T02:11:02;101061.41;;;0.05;64.50
40730;BME280;26418;50.070;8.436;2023-03-01T02:13:30;101067.56;;;0.05;64.58
40730;BME280;26418;50.070;8.436;2023-03-01T02:15:56;101074.50;;;-0.01;64.65
40730;BME280;26418;50.070;8.436;2023-03-01T02:18:23;101061.97;;;-0.13;65.15
40730;BME280;26418;50.070;8.436;2023-03-01T02:23:53;101065.09;;;-0.03;64.65
40730;BME280;26418;50.070;8.436;2023-03-01T02:26:27;101061.16;;;-0.07;65.07
40730;BME280;26418;50.070;8.436;2023-03-01T02:28:58;101064.25;;;-0.04;64.84
40730;BME280;26418;50.070;8.436;2023-03-01T02:31:23;101067.13;;;0.02;64.75
40730;BME280;26418;50.070;8.436;2023-03-01T02:34:15;101054.03;;;0.07;65.13
40730;BME280;26418;50.070;8.436;2023-03-01T02:36:56;101038.28;;;0.05;64.45
40730;BME280;26418;50.070;8.436;2023-03-01T02:39:29;101038.91;;;0.07;64.54
40730;BME280;26418;50.070;8.436;2023-03-01T02:41:56;101043.00;;;0.10;64.52
40730;BME280;26418;50.070;8.436;2023-03-01T02:44:22;101044.84;;;0.03;64.68
40730;BME280;26418;50.070;8.436;2023-03-01T02:46:50;101035.44;;;0.00;64.96
40730;BME280;26418;50.070;8.436;2023-03-01T02:49:23;101029.31;;;0.06;64.64
40730;BME280;26418;50.070;8.436;2023-03-01T02:55:01;101020.47;;;0.06;64.73
40730;BME280;26418;50.070;8.436;2023-03-01T02:57:28;101023.38;;;0.11;64.38
40730;BME280;26418;50.070;8.436;2023-03-01T02:59:56;101011.31;;;0.08;64.53
40730;BME280;26418;50.070;8.436;2023-03-01T03:02:25;101011.69;;;-0.02;64.53
40730;BME280;26418;50.070;8.436;2023-03-01T03:05:12;101013.13;;;-0.06;64.70
40730;BME280;26418;50.070;8.436;2023-03-01T03:07:39;101017.63;;;0.01;65.17
40730;BME280;26418;50.070;8.436;2023-03-01T03:10:08;101013.13;;;0.08;64.50
40730;BME280;26418;50.070;8.436;2023-03-01T03:12:36;101009.06;;;0.12;64.43
40730;BME280;26418;50.070;8.436;2023-03-01T03:15:03;100998.00;;;0.15;64.06
40730;BME280;26418;50.070;8.436;2023-03-01T03:17:36;100997.78;;;0.10;64.18
40730;BME280;26418;50.070;8.436;2023-03-01T03:20:04;100985.09;;;-0.02;64.68
40730;BME280;26418;50.070;8.436;2023-03-01T03:22:31;101000.03;;;-0.01;64.64
40730;BME280;26418;50.070;8.436;2023-03-01T03:24:56;100982.44;;;-0.02;64.64
40730;BME280;26418;50.070;8.436;2023-03-01T03:27:22;100987.97;;;-0.03;64.61
40730;BME280;26418;50.070;8.436;2023-03-01T03:29:47;100970.75;;;-0.07;64.59
40730;BME280;26418;50.070;8.436;2023-03-01T03:32:12;101002.06;;;0.04;64.24
40730;BME280;26418;50.070;8.436;2023-03-01T03:34:37;100995.34;;;0.02;64.41
40730;BME280;26418;50.070;8.436;2023-03-01T03:37:03;100984.88;;;-0.07;64.76
40730;BME280;26418;50.070;8.436;2023-03-01T03:39:28;100971.00;;;-0.02;64.63
40730;BME280;26418;50.070;8.436;2023-03-01T03:41:59;100983.47;;;0.04;64.28
40730;BME280;26418;50.070;8.436;2023-03-01T03:44:25;100973.63;;;0.05;64.49
40730;BME280;26418;50.070;8.436;2023-03-01T03:46:50;100969.16;;;0.05;64.29
40730;BME280;26418;50.070;8.436;2023-03-01T03:49:15;100964.84;;;0.04;64.11
40730;BME280;26418;50.070;8.436;2023-03-01T03:51:41;100952.78;;;0.02;64.20
40730;BME280;26418;50.070;8.436;2023-03-01T03:54:06;100957.25;;;0.01;64.15
40730;BME280;26418;50.070;8.436;2023-03-01T03:56:31;100961.78;;;0.01;64.53
40730;BME280;26418;50.070;8.436;2023-03-01T03:58:57;100959.34;;;-0.01;64.08
40730;BME280;26418;50.070;8.436;2023-03-01T04:01:22;100941.72;;;-0.09;64.38
40730;BME280;26418;50.070;8.436;2023-03-01T04:03:47;100963.41;;;0.02;64.18
40730;BME280;26418;50.070;8.436;2023-03-01T04:06:16;100960.75;;;-0.05;64.44
40730;BME280;26418;50.070;8.436;2023-03-01T04:08:41;100961.56;;;-0.11;64.21
40730;BME280;26418;50.070;8.436;2023-03-01T04:11:07;100952.78;;;-0.19;64.70
40730;BME280;26418;50.070;8.436;2023-03-01T04:13:51;100968.50;;;-0.17;64.69
40730;BME280;26418;50.070;8.436;2023-03-01T04:16:17;100958.06;;;-0.25;65.20
40730;BME280;26418;50.070;8.436;2023-03-01T04:18:43;100972.38;;;-0.26;64.73
40730;BME280;26418;50.070;8.436;2023-03-01T04:21:09;100966.25;;;-0.27;65.13
40730;BME280;26418;50.070;8.436;2023-03-01T04:23:36;100961.13;;;-0.35;65.41
40730;BME280;26418;50.070;8.436;2023-03-01T04:26:02;100965.00;;;-0.38;65.08
40730;BME280;26418;50.070;8.436;2023-03-01T04:28:35;100958.06;;;-0.32;65.62
40730;BME280;26418;50.070;8.436;2023-03-01T04:31:13;100951.53;;;-0.36;65.27
40730;BME280;26418;50.070;8.436;2023-03-01T04:33:40;100966.44;;;-0.28;65.49
40730;BME280;26418;50.070;8.436;2023-03-01T04:36:06;100951.88;;;-0.46;65.81
40730;BME280;26418;50.070;8.436;2023-03-01T04:38:34;100962.31;;;-0.51;65.56
40730;BME280;26418;50.070;8.436;2023-03-01T04:41:01;100962.09;;;-0.50;66.06
40730;BME280;26418;50.070;8.436;2023-03-01T04:43:28;100963.94;;;-0.50;66.16
40730;BME280;26418;50.070;8.436;2023-03-01T04:45:53;100962.50;;;-0.59;66.20
40730;BME280;26418;50.070;8.436;2023-03-01T04:48:19;100951.84;;;-0.66;66.53
40730;BME280;26418;50.070;8.436;2023-03-01T04:50:44;100951.03;;;-0.67;67.20
40730;BME280;26418;50.070;8.436;2023-03-01T04:53:09;100956.13;;;-0.65;66.86
40730;BME280;26418;50.070;8.436;2023-03-01T04:55:35;100959.22;;;-0.61;67.23
40730;BME280;26418;50.070;8.436;2023-03-01T04:58:00;100959.41;;;-0.63;67.20
40730;BME280;26418;50.070;8.436;2023-03-01T05:00:25;100958.00;;;-0.66;66.71
40730;BME280;26418;50.070;8.436;2023-03-01T05:02:56;100961.44;;;-0.65;67.28
40730;BME280;26418;50.070;8.436;2023-03-01T05:05:34;100952.84;;;-0.74;67.16
40730;BME280;26418;50.070;8.436;2023-03-01T05:08:03;100961.69;;;-0.60;66.92
40730;BME280;26418;50.070;8.436;2023-03-01T05:10:31;100956.97;;;-0.58;66.83
40730;BME280;26418;50.070;8.436;2023-03-01T05:12:59;100949.63;;;-0.56;67.09
40730;BME280;26418;50.070;8.436;2023-03-01T05:15:28;100949.03;;;-0.51;66.44
40730;BME280;26418;50.070;8.436;2023-03-01T05:17:56;100949.84;;;-0.57;66.61
40730;BME280;26418;50.070;8.436;2023-03-01T05:20:24;100942.84;;;-0.65;66.81
40730;BME280;26418;50.070;8.436;2023-03-01T05:22:51;100945.16;;;-0.55;66.55
40730;BME280;26418;50.070;8.436;2023-03-01T05:25:17;100953.34;;;-0.43;66.25
40730;BME280;26418;50.070;8.436;2023-03-01T05:27:42;100947.22;;;-0.51;65.97
40730;BME280;26418;50.070;8.436;2023-03-01T05:30:08;100936.13;;;-0.54;65.86
40730;BME280;26418;50.070;8.436;2023-03-01T05:32:42;100949.03;;;-0.51;66.53
40730;BME280;26418;50.070;8.436;2023-03-01T05:35:09;100946.75;;;-0.54;66.70
40730;BME280;26418;50.070;8.436;2023-03-01T05:37:39;100940.03;;;-0.50;70.31
40730;BME280;26418;50.070;8.436;2023-03-01T05:40:05;100938.63;;;-0.39;72.05
40730;BME280;26418;50.070;8.436;2023-03-01T05:42:30;100946.22;;;-0.29;73.58
40730;BME280;26418;50.070;8.436;2023-03-01T05:44:55;100942.53;;;-0.22;75.45
40730;BME280;26418;50.070;8.436;2023-03-01T05:47:21;100943.16;;;-0.06;72.27
40730;BME280;26418;50.070;8.436;2023-03-01T05:49:47;100943.56;;;0.04;73.57
40730;BME280;26418;50.070;8.436;2023-03-01T05:52:12;100942.13;;;0.02;71.62
40730;BME280;26418;50.070;8.436;2023-03-01T05:54:37;100940.91;;;0.11;75.09
40730;BME280;26418;50.070;8.436;2023-03-01T05:57:03;100937.84;;;0.27;79.96
40730;BME280;26418;50.070;8.436;2023-03-01T05:59:28;100928.63;;;0.37;74.66
40730;BME280;26418;50.070;8.436;2023-03-01T06:01:54;100924.31;;;0.36;75.02
40730;BME280;26418;50.070;8.436;2023-03-01T06:04:19;100938.19;;;0.58;74.14
40730;BME280;26418;50.070;8.436;2023-03-01T06:06:44;100928.16;;;0.53;68.02
40730;BME280;26418;50.070;8.436;2023-03-01T06:09:10;100931.44;;;0.49;66.65
40730;BME280;26418;50.070;8.436;2023-03-01T06:11:36;100937.00;;;0.34;66.25
40730;BME280;26418;50.070;8.436;2023-03-01T06:14:02;100940.06;;;0.30;65.86
40730;BME280;26418;50.070;8.436;2023-03-01T06:16:28;100943.16;;;0.21;65.45
40730;BME280;26418;50.070;8.436;2023-03-01T06:18:53;100941.72;;;0.11;64.80
40730;BME280;26418;50.070;8.436;2023-03-01T06:21:19;100933.94;;;-0.04;64.31
40730;BME280;26418;50.070;8.436;2023-03-01T06:23:44;100931.06;;;-0.16;63.85
40730;BME280;26418;50.070;8.436;2023-03-01T06:26:09;100951.75;;;-0.11;64.29
40730;BME280;26418;50.070;8.436;2023-03-01T06:28:35;100940.91;;;-0.16;64.40
40730;BME280;26418;50.070;8.436;2023-03-01T06:31:00;100954.59;;;-0.19;64.42
40730;BME280;26418;50.070;8.436;2023-03-01T06:33:26;100947.63;;;-0.20;64.89
40730;BME280;26418;50.070;8.436;2023-03-01T06:35:54;100946.84;;;-0.14;64.47
40730;BME280;26418;50.070;8.436;2023-03-01T06:38:19;100943.38;;;-0.08;64.73
40730;BME280;26418;50.070;8.436;2023-03-01T06:40:45;100947.03;;;-0.09;63.99
40730;BME280;26418;50.070;8.436;2023-03-01T06:43:16;100945.63;;;-0.11;64.49
40730;BME280;26418;50.070;8.436;2023-03-01T06:45:41;100934.56;;;-0.08;63.59
40730;BME280;26418;50.070;8.436;2023-03-01T06:48:08;100932.72;;;-0.08;63.96
40730;BME280;26418;50.070;8.436;2023-03-01T06:50:34;100934.16;;;-0.12;63.97
40730;BME280;26418;50.070;8.436;2023-03-01T06:53:00;100929.88;;;-0.13;63.82
40730;BME280;26418;50.070;8.436;2023-03-01T06:55:25;100927.81;;;-0.18;64.17
40730;BME280;26418;50.070;8.436;2023-03-01T06:57:55;100933.72;;;-0.16;64.37
40730;BME280;26418;50.070;8.436;2023-03-01T07:00:22;100933.31;;;-0.19;64.46
40730;BME280;26418;50.070;8.436;2023-03-01T07:02:47;100914.31;;;-0.16;65.25
40730;BME280;26418;50.070;8.436;2023-03-01T07:05:13;100925.56;;;-0.01;65.86
40730;BME280;26418;50.070;8.436;2023-03-01T07:07:38;100898.97;;;-0.07;64.71
40730;BME280;26418;50.070;8.436;2023-03-01T07:10:04;100922.50;;;0.03;64.21
40730;BME280;26418;50.070;8.436;2023-03-01T07:12:30;100933.53;;;0.13;63.78
40730;BME280;26418;50.070;8.436;2023-03-01T07:14:55;100943.16;;;0.14;63.55
40730;BME280;26418;50.070;8.436;2023-03-01T07:17:20;100937.22;;;0.12;63.39
40730;BME280;26418;50.070;8.436;2023-03-01T07:19:46;100947.03;;;0.11;63.64
40730;BME280;26418;50.070;8.436;2023-03-01T07:22:11;100929.66;;;0.02;64.03
40730;BME280;26418;50.070;8.436;2023-03-01T07:24:36;100939.69;;;0.13;64.37
40730;BME280;26418;50.070;8.436;2023-03-01T07:27:02;100933.13;;;0.23;64.25
40730;BME280;26418;50.070;8.436;2023-03-01T07:29:28;100941.91;;;0.23;63.93
40730;BME280;26418;50.070;8.436;2023-03-01T07:31:54;100934.75;;;0.30;63.13
40730;BME280;26418;50.070;8.436;2023-03-01T07:34:19;100931.91;;;0.32;63.01
40730;BME280;26418;50.070;8.436;2023-03-01T07:36:44;100916.94;;;0.31;63.12
40730;BME280;26418;50.070;8.436;2023-03-01T07:39:10;100916.50;;;0.41;63.06
40730;BME280;26418;50.070;8.436;2023-03-01T07:41:36;100916.72;;;0.46;62.57
40730;BME280;26418;50.070;8.436;2023-03-01T07:44:01;100905.47;;;0.44;62.58
40730;BME280;26418;50.070;8.436;2023-03-01T07:46:26;100919.97;;;0.55;63.01
40730;BME280;26418;50.070;8.436;2023-03-01T07:48:52;100914.66;;;0.55;62.13
40730;BME280;26418;50.070;8.436;2023-03-01T07:51:17;100920.16;;;0.60;62.70
40730;BME280;26418;50.070;8.436;2023-03-01T07:53:46;100905.00;;;0.60;62.52
40730;BME280;26418;50.070;8.436;2023-03-01T07:56:14;100916.44;;;0.68;62.19
40730;BME280;26418;50.070;8.436;2023-03-01T07:58:42;100926.06;;;0.69;61.91
40730;BME280;26418;50.070;8.436;2023-03-01T08:01:12;100924.81;;;0.78;62.29
40730;BME280;26418;50.070;8.436;2023-03-01T08:03:38;100914.56;;;0.82;61.92
40730;BME280;26418;50.070;8.436;2023-03-01T08:06:06;100923.56;;;0.87;61.58
40730;BME280;26418;50.070;8.436;2023-03-01T08:08:32;100910.25;;;0.87;61.21
40730;BME280;26418;50.070;8.436;2023-03-01T08:10:59;100913.47;;;0.96;61.29
40730;BME280;26418;50.070;8.436;2023-03-01T08:13:24;100911.78;;;1.08;61.92
40730;BME280;26418;50.070;8.436;2023-03-01T08:15:50;100912.13;;;1.19;61.25
40730;BME280;26418;50.070;8.436;2023-03-01T08:18:17;100911.09;;;1.20;60.49
40730;BME280;26418;50.070;8.436;2023-03-01T08:20:42;100912.09;;;1.25;60.25
40730;BME280;26418;50.070;8.436;2023-03-01T08:23:08;100910.25;;;1.26;60.33
40730;BME280;26418;50.070;8.436;2023-03-01T08:25:33;100910.81;;;1.35;59.83
40730;BME280;26418;50.070;8.436;2023-03-01T08:27:59;100882.19;;;1.23;59.46
40730;BME280;26418;50.070;8.436;2023-03-01T08:30:24;100893.81;;;1.36;59.05
40730;BME280;26418;50.070;8.436;2023-03-01T08:32:50;100905.63;;;1.47;59.25
40730;BME280;26418;50.070;8.436;2023-03-01T08:35:16;100905.97;;;1.57;58.88
40730;BME280;26418;50.070;8.436;2023-03-01T08:37:42;100891.16;;;1.61;58.44
40730;BME280;26418;50.070;8.436;2023-03-01T08:40:08;100886.31;;;1.77;58.45
40730;BME280;26418;50.070;8.436;2023-03-01T08:42:35;100887.25;;;1.89;57.80
40730;BME280;26418;50.070;8.436;2023-03-01T08:45:01;100885.78;;;1.93;57.31
40730;BME280;26418;50.070;8.436;2023-03-01T08:47:26;100878.22;;;1.90;57.34
40730;BME280;26418;50.070;8.436;2023-03-01T08:49:51;100888.00;;;1.96;57.37
40730;BME280;26418;50.070;8.436;2023-03-01T08:52:19;100869.66;;;2.07;57.50
40730;BME280;26418;50.070;8.436;2023-03-01T08:54:47;100865.03;;;2.20;56.85
40730;BME280;26418;50.070;8.436;2023-03-01T08:57:12;100839.19;;;2.14;55.67
40730;BME280;26418;50.070;8.436;2023-03-01T08:59:38;100864.63;;;2.35;56.03
40730;BME280;26418;50.070;8.436;2023-03-01T09:02:04;100873.84;;;2.40;55.56
40730;BME280;26418;50.070;8.436;2023-03-01T09:04:31;100871.41;;;2.38;55.13
40730;BME280;26418;50.070;8.436;2023-03-01T09:06:56;100856.63;;;2.35;54.97
40730;BME280;26418;50.070;8.436;2023-03-01T09:09:21;100862.81;;;2.55;55.11
40730;BME280;26418;50.070;8.436;2023-03-01T09:11:47;100869.47;;;2.64;55.08
40730;BME280;26418;50.070;8.436;2023-03-01T09:14:15;100840.31;;;2.62;54.47
40730;BME280;26418;50.070;8.436;2023-03-01T09:16:40;100863.16;;;2.77;54.07
40730;BME280;26418;50.070;8.436;2023-03-01T09:19:05;100871.66;;;2.86;53.85
40730;BME280;26418;50.070;8.436;2023-03-01T09:21:31;100859.28;;;2.91;53.55
40730;BME280;26418;50.070;8.436;2023-03-01T09:23:57;100866.13;;;2.99;53.62
40730;BME280;26418;50.070;8.436;2023-03-01T09:26:24;100841.53;;;2.97;53.10
40730;BME280;26418;50.070;8.436;2023-03-01T09:28:52;100858.75;;;3.13;52.93
40730;BME280;26418;50.070;8.436;2023-03-01T09:31:19;100838.06;;;3.08;52.66
40730;BME280;26418;50.070;8.436;2023-03-01T09:33:50;100841.09;;;3.12;53.20
40730;BME280;26418;50.070;8.436;2023-03-01T09:36:17;100848.69;;;3.27;52.77
40730;BME280;26418;50.070;8.436;2023-03-01T09:38:44;100842.66;;;3.32;52.49
40730;BME280;26418;50.070;8.436;2023-03-01T09:41:38;100829.56;;;3.42;52.75
40730;BME280;26418;50.070;8.436;2023-03-01T09:46:52;100829.34;;;3.55;52.21
40730;BME280;26418;50.070;8.436;2023-03-01T09:49:33;100826.09;;;3.77;51.86
40730;BME280;26418;50.070;8.436;2023-03-01T09:54:54;100833.31;;;3.76;51.80
40730;BME280;26418;50.070;8.436;2023-03-01T10:11:02;100826.03;;;4.36;50.52
40730;BME280;26418;50.070;8.436;2023-03-01T10:13:54;100816.13;;;4.37;50.87
40730;BME280;26418;50.070;8.436;2023-03-01T10:19:12;100824.88;;;4.73;49.75
40730;BME280;26418;50.070;8.436;2023-03-01T10:21:44;100809.25;;;4.82;49.37
40730;BME280;26418;50.070;8.436;2023-03-01T10:24:13;100814.94;;;4.85;49.32
40730;BME280;26418;50.070;8.436;2023-03-01T10:26:58;100811.69;;;4.83;48.95
40730;BME280;26418;50.070;8.436;2023-03-01T10:29:37;100806.66;;;4.87;49.05
40730;BME280;26418;50.070;8.436;2023-03-01T10:32:04;100806.19;;;4.90;48.78
40730;BME280;26418;50.070;8.436;2023-03-01T10:34:33;100807.72;;;4.86;48.45
40730;BME280;26418;50.070;8.436;2023-03-01T10:39:34;100791.72;;;4.91;48.71
40730;BME280;26418;50.070;8.436;2023-03-01T10:42:02;100796.25;;;5.19;48.45
40730;BME280;26418;50.070;8.436;2023-03-01T10:47:44;100794.88;;;5.34;47.84
40730;BME280;26418;50.070;8.436;2023-03-01T10:50:20;100792.91;;;5.46;48.02
40730;BME280;26418;50.070;8.436;2023-03-01T10:53:02;100781.34;;;5.63;48.21
40730;BME280;26418;50.070;8.436;2023-03-01T10:55:33;100785.56;;;5.76;47.33
40730;BME280;26418;50.070;8.436;2023-03-01T10:58:16;100780.91;;;5.88;46.95
40730;BME280;26418;50.070;8.436;2023-03-01T11:00:52;100766.38;;;6.23;46.00
40730;BME280;26418;50.070;8.436;2023-03-01T11:03:25;100760.81;;;6.08;46.02
40730;BME280;26418;50.070;8.436;2023-03-01T11:05:55;100765.44;;;5.95;46.47
40730;BME280;26418;50.070;8.436;2023-03-01T11:08:42;100760.59;;;5.75;46.38
40730;BME280;26418;50.070;8.436;2023-03-01T11:11:33;100749.19;;;5.85;46.42
40730;BME280;26418;50.070;8.436;2023-03-01T11:14:21;100729.56;;;6.02;45.91
40730;BME280;26418;50.070;8.436;2023-03-01T11:16:48;100742.06;;;6.13;46.43
40730;BME280;26418;50.070;8.436;2023-03-01T11:19:19;100729.38;;;6.31;45.10
40730;BME280;26418;50.070;8.436;2023-03-01T11:24:33;100737.34;;;6.25;44.70
40730;BME280;26418;50.070;8.436;2023-03-01T11:27:04;100730.81;;;6.16;45.52
40730;BME280;26418;50.070;8.436;2023-03-01T11:29:44;100735.19;;;6.22;45.17
40730;BME280;26418;50.070;8.436;2023-03-01T11:32:13;100722.41;;;6.35;45.00
40730;BME280;26418;50.070;8.436;2023-03-01T11:37:33;100716.44;;;6.55;45.14
40730;BME280;26418;50.070;8.436;2023-03-01T11:40:10;100713.19;;;6.80;43.90
40730;BME280;26418;50.070;8.436;2023-03-01T11:42:48;100710.25;;;7.14;43.07
40730;BME280;26418;50.070;8.436;2023-03-01T11:45:15;100715.47;;;6.93;43.10
40730;BME280;26418;50.070;8.436;2023-03-01T11:48:13;100696.94;;;6.97;42.96
40730;BME280;26418;50.070;8.436;2023-03-01T11:50:47;100696.09;;;6.91;43.20
40730;BME280;26418;50.070;8.436;2023-03-01T11:53:39;100685.28;;;6.86;43.07
40730;BME280;26418;50.070;8.436;2023-03-01T11:56:19;100681.22;;;6.84;42.62
40730;BME280;26418;50.070;8.436;2023-03-01T12:05:20;100673.50;;;6.60;43.83
40730;BME280;26418;50.070;8.436;2023-03-01T12:08:23;100666.59;;;6.69;43.41
40730;BME280;26418;50.070;8.436;2023-03-01T12:11:09;100657.50;;;6.75;43.08
40730;BME280;26418;50.070;8.436;2023-03-01T12:13:51;100653.56;;;6.83;43.03
40730;BME280;26418;50.070;8.436;2023-03-01T12:19:06;100655.22;;;6.95;42.42
40730;BME280;26418;50.070;8.436;2023-03-01T12:22:17;100639.16;;;7.05;42.08
40730;BME280;26418;50.070;8.436;2023-03-01T12:24:42;100644.03;;;7.08;41.84
40730;BME280;26418;50.070;8.436;2023-03-01T12:35:13;100641.84;;;7.00;41.67
40730;BME280;26418;50.070;8.436;2023-03-01T12:41:11;100628.34;;;6.95;42.45
40730;BME280;26418;50.070;8.436;2023-03-01T12:46:21;100613.63;;;7.02;40.74
40730;BME280;26418;50.070;8.436;2023-03-01T12:51:32;100609.31;;;7.06;41.58
40730;BME280;26418;50.070;8.436;2023-03-01T12:54:05;100598.63;;;7.17;41.38
40730;BME280;26418;50.070;8.436;2023-03-01T12:56:34;100594.06;;;7.17;41.28
40730;BME280;26418;50.070;8.436;2023-03-01T12:59:17;100589.50;;;7.18;41.17
40730;BME280;26418;50.070;8.436;2023-03-01T13:01:54;100580.81;;;7.05;41.44
40730;BME280;26418;50.070;8.436;2023-03-01T13:09:58;100582.03;;;7.35;40.29
40730;BME280;26418;50.070;8.436;2023-03-01T13:17:48;100580.91;;;7.21;40.00
40730;BME280;26418;50.070;8.436;2023-03-01T13:20:16;100568.75;;;7.13;40.79
40730;BME280;26418;50.070;8.436;2023-03-01T13:22:42;100566.03;;;7.08;41.05
40730;BME280;26418;50.070;8.436;2023-03-01T13:25:18;100572.50;;;7.12;41.27
40730;BME280;26418;50.070;8.436;2023-03-01T13:27:44;100554.75;;;7.11;41.02
40730;BME280;26418;50.070;8.436;2023-03-01T13:30:40;100558.00;;;7.18;41.30
40730;BME280;26418;50.070;8.436;2023-03-01T13:35:55;100552.59;;;7.13;39.76
40730;BME280;26418;50.070;8.436;2023-03-01T13:41:13;100540.22;;;7.12;40.68
40730;BME280;26418;50.070;8.436;2023-03-01T13:43:41;100531.66;;;7.15;40.15
40730;BME280;26418;50.070;8.436;2023-03-01T13:46:15;100530.31;;;7.18;40.38
40730;BME280;26418;50.070;8.436;2023-03-01T13:48:45;100523.88;;;7.24;40.72
40730;BME280;26418;50.070;8.436;2023-03-01T13:51:11;100513.38;;;7.17;40.27
40730;BME280;26418;50.070;8.436;2023-03-01T13:53:44;100520.09;;;7.20;40.45
40730;BME280;26418;50.070;8.436;2023-03-01T13:56:20;100503.16;;;7.24;40.76
40730;BME280;26418;50.070;8.436;2023-03-01T13:58:52;100520.38;;;7.23;40.77
40730;BME280;26418;50.070;8.436;2023-03-01T14:01:44;100519.31;;;7.24;41.03
40730;BME280;26418;50.070;8.436;2023-03-01T14:04:25;100516.13;;;7.33;41.18
40730;BME280;26418;50.070;8.436;2023-03-01T14:06:52;100509.94;;;7.37;40.36
40730;BME280;26418;50.070;8.436;2023-03-01T14:09:35;100504.56;;;7.43;40.84
40730;BME280;26418;50.070;8.436;2023-03-01T14:14:52;100505.91;;;7.40;40.65
40730;BME280;26418;50.070;8.436;2023-03-01T14:20:26;100516.97;;;7.44;40.90
40730;BME280;26418;50.070;8.436;2023-03-01T14:22:55;100501.03;;;7.32;40.40
40730;BME280;26418;50.070;8.436;2023-03-01T14:25:25;100516.63;;;7.35;40.97
40730;BME280;26418;50.070;8.436;2023-03-01T14:30:31;100509.66;;;7.39;40.34
40730;BME280;26418;50.070;8.436;2023-03-01T14:33:00;100522.28;;;7.33;40.23
40730;BME280;26418;50.070;8.436;2023-03-01T14:35:35;100505.88;;;7.24;40.75
40730;BME280;26418;50.070;8.436;2023-03-01T14:38:02;100515.81;;;7.24;40.72